Time;durP1;ratioP1;P1;durP2;ratioP2;P2;SDS_P1;SDS_P2;PMS_P1;PMS_P2;Temp;Humidity;BMP_temperature;BMP_pressure;BME280_temperature;BME280_humidity;BME280_pressure;Samples;Min_cycle;Max_cycle;Signal;HPM_P1;HPM_P2
2023/08/05 00:01:07;;;;;;;11.30;4.10;;;;;;;;;;5071263;28;20043;-76
2023/08/05 00:03:33;;;;;;;10.85;4.10;;;;;;;;;;5077906;28;20109;-76
2023/08/05 00:05:59;;;;;;;6.03;3.85;;;;;;;;;;5072809;28;20052;-75
2023/08/05 00:08:25;;;;;;;11.05;4.28;;;;;;;;;;5073135;28;20048;-76
2023/08/05 00:10:51;;;;;;;11.35;3.92;;;;;;;;;;5057634;28;20044;-76
2023/08/05 00:13:18;;;;;;;7.78;4.10;;;;;;;;;;5084356;28;20165;-76
2023/08/05 00:15:44;;;;;;;10.07;4.07;;;;;;;;;;5093871;28;20066;-76
2023/08/05 00:18:10;;;;;;;7.35;4.00;;;;;;;;;;5077806;28;20090;-76
2023/08/05 00:20:36;;;;;;;7.00;4.00;;;;;;;;;;5077320;28;20093;-77
2023/08/05 00:23:03;;;;;;;9.68;4.20;;;;;;;;;;5051152;28;20053;-76
2023/08/05 00:25:29;;;;;;;7.57;3.65;;;;;;;;;;5090743;28;20119;-76
2023/08/05 00:27:55;;;;;;;10.43;4.25;;;;;;;;;;5077601;28;20385;-77
2023/08/05 00:30:21;;;;;;;11.85;4.50;;;;;;;;;;5095113;28;20044;-77
2023/08/05 00:32:47;;;;;;;9.30;4.45;;;;;;;;;;5093416;28;20098;-76
2023/08/05 00:35:14;;;;;;;7.07;3.80;;;;;;;;;;5076396;28;20508;-76
2023/08/05 00:37:40;;;;;;;9.18;4.30;;;;;;;;;;5074109;28;20043;-76
2023/08/05 00:40:06;;;;;;;11.57;4.50;;;;;;;;;;5095424;28;20046;-77
2023/08/05 00:42:32;;;;;;;11.77;4.75;;;;;;;;;;5079990;28;20494;-76
2023/08/05 00:44:58;;;;;;;10.23;4.50;;;;;;;;;;5086889;28;20435;-76
2023/08/05 00:47:25;;;;;;;8.15;4.57;;;;;;;;;;5069856;28;20441;-76
2023/08/05 00:49:52;;;;;;;10.32;4.68;;;;;;;;;;5076695;28;20498;-77
2023/08/05 00:52:19;;;;;;;9.05;4.70;;;;;;;;;;5090965;28;20151;-77
2023/08/05 00:54:45;;;;;;;8.45;4.63;;;;;;;;;;5095257;28;20082;-76
2023/08/05 00:57:12;;;;;;;9.60;4.72;;;;;;;;;;5093472;28;20035;-75
2023/08/05 00:59:39;;;;;;;7.53;4.75;;;;;;;;;;5078319;28;20048;-74
2023/08/05 01:02:06;;;;;;;8.27;4.63;;;;;;;;;;5091081;28;20459;-76
2023/08/05 01:04:32;;;;;;;8.85;4.72;;;;;;;;;;5074548;28;20535;-75
2023/08/05 01:06:59;;;;;;;11.60;4.32;;;;;;;;;;5058481;28;20040;-75
2023/08/05 01:09:28;;;;;;;11.38;5.05;;;;;;;;;;5080501;28;20152;-76
2023/08/05 01:11:55;;;;;;;8.13;4.55;;;;;;;;;;5097191;28;20093;-75
2023/08/05 01:14:21;;;;;;;6.82;4.38;;;;;;;;;;5069088;28;20127;-74
2023/08/05 01:16:47;;;;;;;7.53;4.40;;;;;;;;;;5077905;28;20040;-75
2023/08/05 01:19:23;;;;;;;9.90;4.50;;;;;;;;;;5074796;28;20068;-75
2023/08/05 01:21:56;;;;;;;9.57;4.50;;;;;;;;;;5082127;28;20048;-75
2023/08/05 01:24:41;;;;;;;10.50;4.10;;;;;;;;;;5095266;28;20123;-75
2023/08/05 01:27:08;;;;;;;11.60;4.90;;;;;;;;;;5095261;28;20051;-76
2023/08/05 01:29:34;;;;;;;9.88;4.05;;;;;;;;;;5095113;28;20136;-76
2023/08/05 01:32:01;;;;;;;10.02;4.30;;;;;;;;;;5094831;28;20047;-76
2023/08/05 01:34:27;;;;;;;8.23;3.88;;;;;;;;;;5093470;28;20040;-75
2023/08/05 01:36:53;;;;;;;10.50;4.60;;;;;;;;;;5059374;28;20082;-76
2023/08/05 01:39:19;;;;;;;7.97;4.57;;;;;;;;;;5075019;28;20046;-76
2023/08/05 01:41:46;;;;;;;7.75;3.88;;;;;;;;;;5094643;28;20119;-76
2023/08/05 01:44:12;;;;;;;12.38;4.78;;;;;;;;;;5070025;28;20059;-77
2023/08/05 01:46:38;;;;;;;11.15;5.00;;;;;;;;;;5074387;28;20075;-76
2023/08/05 01:49:04;;;;;;;9.73;4.90;;;;;;;;;;5067503;28;20047;-76
2023/08/05 01:51:30;;;;;;;9.50;4.63;;;;;;;;;;5092933;28;20044;-76
2023/08/05 01:53:56;;;;;;;8.48;4.57;;;;;;;;;;5074383;28;20204;-76
2023/08/05 01:56:22;;;;;;;10.95;4.68;;;;;;;;;;5091836;28;20044;-76
2023/08/05 01:58:49;;;;;;;7.95;4.45;;;;;;;;;;5082276;28;20385;-76
2023/08/05 02:01:15;;;;;;;8.38;4.63;;;;;;;;;;5077401;28;20068;-77
2023/08/05 02:03:41;;;;;;;7.72;4.40;;;;;;;;;;5083208;28;20135;-75
2023/08/05 02:06:07;;;;;;;10.52;4.70;;;;;;;;;;5081630;28;20040;-75
2023/08/05 02:08:33;;;;;;;11.68;5.22;;;;;;;;;;5092776;28;20072;-76
2023/08/05 02:10:59;;;;;;;9.15;5.20;;;;;;;;;;5072171;28;20040;-76
2023/08/05 02:13:25;;;;;;;9.63;5.20;;;;;;;;;;5078088;28;20044;-76
2023/08/05 02:15:52;;;;;;;11.13;5.50;;;;;;;;;;5088944;28;20078;-76
2023/08/05 02:18:18;;;;;;;8.05;5.15;;;;;;;;;;5093416;28;20485;-76
2023/08/05 02:20:44;;;;;;;9.65;5.43;;;;;;;;;;5093315;28;20062;-77
2023/08/05 02:23:10;;;;;;;10.50;5.28;;;;;;;;;;5093471;28;20389;-77
2023/08/05 02:25:36;;;;;;;9.02;5.13;;;;;;;;;;5083408;28;20076;-77
2023/08/05 02:28:03;;;;;;;10.73;5.50;;;;;;;;;;5086848;28;20032;-76
2023/08/05 02:30:29;;;;;;;10.30;5.60;;;;;;;;;;5092223;28;20083;-77
2023/08/05 02:32:55;;;;;;;9.50;5.60;;;;;;;;;;5093059;28;20040;-77
2023/08/05 02:35:21;;;;;;;19.73;5.32;;;;;;;;;;5074701;28;20040;-77
2023/08/05 02:37:47;;;;;;;7.85;5.57;;;;;;;;;;5074226;28;20073;-77
2023/08/05 02:40:14;;;;;;;8.30;5.07;;;;;;;;;;5073179;28;20043;-77
2023/08/05 02:42:40;;;;;;;11.02;5.20;;;;;;;;;;5093560;28;20400;-77
2023/08/05 02:45:06;;;;;;;10.20;5.78;;;;;;;;;;5063963;28;20121;-76
2023/08/05 02:47:33;;;;;;;14.85;5.57;;;;;;;;;;5073412;28;20055;-77
2023/08/05 02:49:59;;;;;;;10.27;5.68;;;;;;;;;;5089828;28;20048;-77
2023/08/05 02:52:25;;;;;;;8.52;5.28;;;;;;;;;;5078994;28;20076;-77
2023/08/05 02:54:51;;;;;;;10.57;5.43;;;;;;;;;;5074909;28;20048;-76
2023/08/05 02:57:17;;;;;;;9.52;5.40;;;;;;;;;;5092901;28;20400;-76
2023/08/05 02:59:43;;;;;;;11.27;5.40;;;;;;;;;;5093084;28;20063;-76
2023/08/05 03:02:09;;;;;;;8.25;5.38;;;;;;;;;;5091570;28;20392;-77
2023/08/05 03:04:35;;;;;;;14.40;5.43;;;;;;;;;;5083628;28;20083;-75
2023/08/05 03:07:02;;;;;;;12.55;5.10;;;;;;;;;;5071405;28;20041;-75
2023/08/05 03:09:28;;;;;;;11.40;5.00;;;;;;;;;;5067914;28;20338;-76
2023/08/05 03:11:54;;;;;;;9.45;5.10;;;;;;;;;;5091741;28;20055;-75
2023/08/05 03:14:20;;;;;;;11.07;5.20;;;;;;;;;;5047286;28;20045;-75
2023/08/05 03:16:46;;;;;;;8.52;4.93;;;;;;;;;;5065806;28;20047;-75
2023/08/05 03:19:12;;;;;;;11.20;5.05;;;;;;;;;;5072467;28;20044;-76
2023/08/05 03:21:38;;;;;;;8.52;4.75;;;;;;;;;;5072810;28;20385;-76
2023/08/05 03:24:05;;;;;;;7.07;4.60;;;;;;;;;;5072490;28;20496;-76
2023/08/05 03:26:31;;;;;;;8.63;4.65;;;;;;;;;;5072395;28;20440;-76
2023/08/05 03:28:57;;;;;;;8.23;5.10;;;;;;;;;;5072604;28;20389;-76
2023/08/05 03:31:23;;;;;;;8.55;4.82;;;;;;;;;;5037375;28;20041;-76
2023/08/05 03:33:49;;;;;;;10.43;4.85;;;;;;;;;;5065125;28;20127;-76
2023/08/05 03:36:15;;;;;;;11.18;4.45;;;;;;;;;;5061040;28;20392;-76
2023/08/05 03:38:42;;;;;;;10.27;5.03;;;;;;;;;;5072806;28;20443;-76
2023/08/05 03:41:08;;;;;;;7.60;4.70;;;;;;;;;;5045760;28;20044;-77
2023/08/05 03:43:34;;;;;;;10.13;5.00;;;;;;;;;;5092580;28;20047;-77
2023/08/05 03:46:00;;;;;;;9.57;4.50;;;;;;;;;;5076900;28;20119;-77
2023/08/05 03:48:26;;;;;;;11.27;5.30;;;;;;;;;;5096720;28;20119;-76
2023/08/05 03:50:52;;;;;;;9.50;5.20;;;;;;;;;;5093519;28;20070;-76
2023/08/05 03:53:19;;;;;;;13.35;5.05;;;;;;;;;;5091955;28;20123;-76
2023/08/05 03:55:45;;;;;;;11.00;4.97;;;;;;;;;;5058042;28;20056;-76
2023/08/05 03:58:11;;;;;;;11.85;5.20;;;;;;;;;;5083667;28;20044;-76
2023/08/05 04:00:40;;;;;;;11.40;5.75;;;;;;;;;;5096479;28;20133;-76
2023/08/05 04:03:06;;;;;;;9.88;5.68;;;;;;;;;;5096597;28;20420;-76
2023/08/05 04:05:32;;;;;;;12.35;5.70;;;;;;;;;;5096050;28;20052;-76
2023/08/05 04:07:58;;;;;;;11.98;5.28;;;;;;;;;;5062141;28;20067;-76
2023/08/05 04:10:24;;;;;;;10.52;5.10;;;;;;;;;;5095132;28;20492;-75
2023/08/05 04:12:51;;;;;;;8.85;5.10;;;;;;;;;;5096407;28;20080;-75
2023/08/05 04:15:18;;;;;;;13.52;5.40;;;;;;;;;;5096153;28;20403;-76
2023/08/05 04:17:45;;;;;;;10.30;5.30;;;;;;;;;;5096521;28;20044;-76
2023/08/05 04:20:12;;;;;;;9.52;4.57;;;;;;;;;;5095960;28;20079;-76
2023/08/05 04:22:39;;;;;;;11.35;5.00;;;;;;;;;;5093039;28;20084;-76
2023/08/05 04:25:06;;;;;;;11.73;5.10;;;;;;;;;;5095055;28;20055;-76
2023/08/05 04:27:32;;;;;;;9.70;4.90;;;;;;;;;;5095746;28;20104;-76
2023/08/05 04:29:58;;;;;;;9.32;5.20;;;;;;;;;;5095012;28;20050;-77
2023/08/05 04:32:24;;;;;;;11.75;5.07;;;;;;;;;;5094403;28;20097;-76
2023/08/05 04:34:51;;;;;;;7.88;4.88;;;;;;;;;;5077910;28;20040;-76
2023/08/05 04:37:18;;;;;;;9.52;5.00;;;;;;;;;;5076969;28;20046;-74
2023/08/05 04:39:45;;;;;;;11.20;4.97;;;;;;;;;;5090111;28;20103;-74
2023/08/05 04:42:11;;;;;;;9.02;4.68;;;;;;;;;;5099992;28;20044;-76
2023/08/05 04:44:42;;;;;;;10.95;4.80;;;;;;;;;;5074652;28;20052;-76
2023/08/05 04:47:09;;;;;;;9.52;4.45;;;;;;;;;;5074926;28;20504;-75
2023/08/05 04:49:35;;;;;;;12.25;4.93;;;;;;;;;;5088587;28;20476;-75
2023/08/05 04:52:06;;;;;;;11.18;4.80;;;;;;;;;;5078664;28;20132;-76
2023/08/05 04:54:43;;;;;;;9.02;4.30;;;;;;;;;;5073983;28;20040;-75
2023/08/05 04:57:09;;;;;;;8.25;4.38;;;;;;;;;;5095391;28;20115;-76
2023/08/05 04:59:35;;;;;;;11.07;4.60;;;;;;;;;;5043765;28;20045;-76
2023/08/05 05:02:02;;;;;;;8.55;4.20;;;;;;;;;;5077407;28;20218;-76
2023/08/05 05:04:28;;;;;;;6.93;3.75;;;;;;;;;;5081177;28;20075;-75
2023/08/05 05:06:54;;;;;;;10.77;3.70;;;;;;;;;;5095398;28;20085;-75
2023/08/05 05:09:20;;;;;;;8.63;3.88;;;;;;;;;;5087506;28;20060;-75
2023/08/05 05:11:47;;;;;;;8.18;4.13;;;;;;;;;;5056964;28;20045;-77
2023/08/05 05:14:13;;;;;;;7.70;3.75;;;;;;;;;;5075234;28;20055;-75
2023/08/05 05:16:39;;;;;;;10.23;3.63;;;;;;;;;;5074223;28;20051;-76
2023/08/05 05:19:05;;;;;;;7.78;4.00;;;;;;;;;;5055683;28;20037;-76
2023/08/05 05:21:31;;;;;;;7.50;3.90;;;;;;;;;;5081851;28;20043;-76
2023/08/05 05:23:57;;;;;;;5.43;3.42;;;;;;;;;;5095203;28;20047;-76
2023/08/05 05:26:23;;;;;;;7.28;3.50;;;;;;;;;;5077193;28;20511;-76
2023/08/05 05:28:49;;;;;;;9.10;3.80;;;;;;;;;;5095565;28;20396;-76
2023/08/05 05:31:16;;;;;;;8.20;3.55;;;;;;;;;;5084047;28;20050;-76
2023/08/05 05:33:47;;;;;;;6.38;3.47;;;;;;;;;;5072743;28;20053;-76
2023/08/05 05:36:13;;;;;;;8.07;3.47;;;;;;;;;;5071762;28;20052;-75
2023/08/05 05:38:39;;;;;;;6.72;3.42;;;;;;;;;;5072580;28;20043;-75
2023/08/05 05:41:05;;;;;;;8.40;3.40;;;;;;;;;;5053722;28;20135;-75
2023/08/05 05:43:33;;;;;;;9.20;3.80;;;;;;;;;;5074636;28;20449;-74
2023/08/05 05:45:59;;;;;;;8.23;3.90;;;;;;;;;;5039298;28;20048;-75
2023/08/05 05:48:27;;;;;;;8.75;4.10;;;;;;;;;;5056563;28;20368;-76
2023/08/05 05:50:53;;;;;;;9.73;3.78;;;;;;;;;;5073628;28;20102;-76
2023/08/05 05:53:19;;;;;;;6.03;3.63;;;;;;;;;;5080144;28;20051;-76
2023/08/05 05:55:45;;;;;;;7.97;3.90;;;;;;;;;;5093977;28;20119;-76
2023/08/05 05:58:12;;;;;;;7.15;3.85;;;;;;;;;;5094316;28;20052;-75
2023/08/05 06:00:39;;;;;;;7.22;3.63;;;;;;;;;;5094139;28;20119;-75
2023/08/05 06:03:05;;;;;;;6.40;3.72;;;;;;;;;;5076290;28;20056;-75
2023/08/05 06:05:32;;;;;;;7.13;3.67;;;;;;;;;;5091861;28;20055;-75
2023/08/05 06:07:58;;;;;;;7.60;3.47;;;;;;;;;;5091906;28;20458;-75
2023/08/05 06:10:24;;;;;;;7.72;3.88;;;;;;;;;;5080334;28;20040;-75
2023/08/05 06:12:50;;;;;;;7.57;3.40;;;;;;;;;;5060455;28;20122;-76
2023/08/05 06:15:16;;;;;;;9.02;3.50;;;;;;;;;;5073587;28;20040;-76
2023/08/05 06:17:42;;;;;;;8.90;3.50;;;;;;;;;;5073965;28;20509;-76
2023/08/05 06:20:09;;;;;;;8.23;3.30;;;;;;;;;;5082666;28;20056;-76
2023/08/05 06:22:35;;;;;;;7.82;3.13;;;;;;;;;;5092331;28;20408;-76
2023/08/05 06:25:01;;;;;;;8.05;3.10;;;;;;;;;;5071287;28;20035;-76
2023/08/05 06:27:27;;;;;;;6.57;3.05;;;;;;;;;;5094159;28;20051;-75
2023/08/05 06:29:53;;;;;;;4.80;2.88;;;;;;;;;;5090313;28;20041;-75
2023/08/05 06:32:19;;;;;;;7.70;2.97;;;;;;;;;;5091647;28;20044;-76
2023/08/05 06:34:45;;;;;;;5.78;2.70;;;;;;;;;;5074455;28;20040;-75
2023/08/05 06:37:11;;;;;;;6.03;2.80;;;;;;;;;;5093149;28;20048;-76
2023/08/05 06:39:38;;;;;;;6.75;2.70;;;;;;;;;;5093421;28;20040;-76
2023/08/05 06:42:04;;;;;;;7.90;3.05;;;;;;;;;;5093640;28;20044;-75
2023/08/05 06:44:30;;;;;;;6.15;2.65;;;;;;;;;;5070262;28;20098;-75
2023/08/05 06:46:56;;;;;;;5.15;2.67;;;;;;;;;;5056517;28;20047;-76
2023/08/05 06:49:23;;;;;;;4.90;2.80;;;;;;;;;;5041917;28;20448;-76
2023/08/05 06:51:50;;;;;;;8.50;3.25;;;;;;;;;;5079247;28;20047;-75
2023/08/05 06:54:16;;;;;;;6.32;2.90;;;;;;;;;;5093311;28;20050;-75
2023/08/05 06:56:42;;;;;;;5.25;2.58;;;;;;;;;;5092657;28;20554;-77
2023/08/05 06:59:09;;;;;;;5.68;2.45;;;;;;;;;;5076574;28;20041;-75
2023/08/05 07:01:35;;;;;;;8.38;2.38;;;;;;;;;;5087839;28;20059;-76
2023/08/05 07:04:01;;;;;;;5.63;2.50;;;;;;;;;;5092258;28;20088;-77
2023/08/05 07:06:27;;;;;;;5.95;2.45;;;;;;;;;;5092321;28;20048;-76
2023/08/05 07:08:53;;;;;;;5.65;2.67;;;;;;;;;;5092556;28;20488;-76
2023/08/05 07:11:20;;;;;;;5.47;2.72;;;;;;;;;;5092449;28;20052;-77
2023/08/05 07:13:46;;;;;;;6.28;2.60;;;;;;;;;;5092699;28;20044;-77
2023/08/05 07:16:12;;;;;;;4.25;2.72;;;;;;;;;;5092027;28;20047;-77
2023/08/05 07:18:38;;;;;;;7.25;2.90;;;;;;;;;;5074654;28;20055;-78
2023/08/05 07:21:04;;;;;;;5.13;2.58;;;;;;;;;;5068595;28;20051;-78
2023/08/05 07:23:31;;;;;;;4.85;2.60;;;;;;;;;;5082139;28;20055;-77
2023/08/05 07:26:02;;;;;;;6.18;2.58;;;;;;;;;;5074351;28;20048;-76
2023/08/05 07:28:29;;;;;;;4.00;2.35;;;;;;;;;;5091779;28;20075;-77
2023/08/05 07:31:04;;;;;;;7.40;2.90;;;;;;;;;;5091475;28;20127;-77
2023/08/05 07:33:31;;;;;;;7.20;2.88;;;;;;;;;;5093132;28;20075;-78
2023/08/05 07:35:57;;;;;;;4.47;2.40;;;;;;;;;;5068096;28;20380;-78
2023/08/05 07:38:27;;;;;;;5.53;2.67;;;;;;;;;;5058428;28;20109;-79
2023/08/05 07:40:58;;;;;;;5.70;2.53;;;;;;;;;;5072707;28;20044;-79
2023/08/05 07:43:24;;;;;;;7.50;2.85;;;;;;;;;;5038672;28;20052;-79
2023/08/05 07:45:52;;;;;;;4.63;2.40;;;;;;;;;;5072721;28;20060;-79
2023/08/05 07:48:19;;;;;;;5.88;2.45;;;;;;;;;;5073107;28;20044;-78
2023/08/05 07:50:46;;;;;;;4.70;2.45;;;;;;;;;;5054754;28;20091;-79
2023/08/05 07:53:13;;;;;;;6.85;2.75;;;;;;;;;;5072879;28;20044;-79
2023/08/05 07:55:42;;;;;;;7.20;2.50;;;;;;;;;;5070313;28;20049;-78
2023/08/05 07:58:08;;;;;;;9.68;3.25;;;;;;;;;;5056097;28;20388;-79
2023/08/05 08:00:34;;;;;;;4.50;2.42;;;;;;;;;;5080481;28;20041;-76
2023/08/05 08:03:00;;;;;;;3.75;2.33;;;;;;;;;;5086603;28;20139;-76
2023/08/05 08:05:27;;;;;;;4.78;2.33;;;;;;;;;;5071490;28;20040;-79
2023/08/05 08:07:55;;;;;;;4.05;2.15;;;;;;;;;;5084964;28;20048;-78
2023/08/05 08:10:24;;;;;;;4.43;2.28;;;;;;;;;;5072004;28;20131;-77
2023/08/05 08:12:51;;;;;;;6.47;2.65;;;;;;;;;;5079721;28;20497;-78
2023/08/05 08:15:18;;;;;;;6.60;2.40;;;;;;;;;;5092498;28;20040;-78
2023/08/05 08:17:44;;;;;;;6.90;2.47;;;;;;;;;;5092771;28;20112;-77
2023/08/05 08:20:10;;;;;;;5.70;2.40;;;;;;;;;;5073501;28;20374;-77
2023/08/05 08:22:36;;;;;;;6.53;2.17;;;;;;;;;;5092882;28;20089;-79
2023/08/05 08:25:03;;;;;;;4.68;2.22;;;;;;;;;;5075989;28;20051;-78
2023/08/05 08:27:29;;;;;;;5.43;2.60;;;;;;;;;;5083760;28;20053;-77
2023/08/05 08:29:55;;;;;;;7.00;2.72;;;;;;;;;;5084715;28;20075;-78
2023/08/05 08:32:21;;;;;;;4.55;2.40;;;;;;;;;;5092791;28;20108;-77
2023/08/05 08:34:47;;;;;;;5.25;2.50;;;;;;;;;;5093848;28;20119;-77
2023/08/05 08:37:13;;;;;;;4.47;2.20;;;;;;;;;;5093774;28;20127;-78
2023/08/05 08:39:39;;;;;;;6.38;2.35;;;;;;;;;;5077930;28;20040;-78
2023/08/05 08:42:06;;;;;;;6.38;2.40;;;;;;;;;;5077885;28;20437;-78
2023/08/05 08:44:32;;;;;;;4.80;2.22;;;;;;;;;;5095953;28;20040;-76
2023/08/05 08:46:59;;;;;;;6.10;2.75;;;;;;;;;;5095659;28;20492;-78
2023/08/05 08:49:26;;;;;;;7.20;2.45;;;;;;;;;;5077575;28;20536;-77
2023/08/05 08:51:54;;;;;;;5.20;2.40;;;;;;;;;;5095335;28;20104;-77
2023/08/05 08:54:21;;;;;;;7.47;2.60;;;;;;;;;;5094056;28;20067;-77
2023/08/05 08:56:48;;;;;;;5.45;2.20;;;;;;;;;;5095363;28;20396;-77
2023/08/05 08:59:14;;;;;;;5.47;2.33;;;;;;;;;;5077117;28;20127;-77
2023/08/05 09:01:40;;;;;;;5.60;2.30;;;;;;;;;;5095040;28;20098;-77
2023/08/05 09:04:08;;;;;;;5.55;2.55;;;;;;;;;;5090096;28;20427;-77
2023/08/05 09:06:35;;;;;;;4.47;2.30;;;;;;;;;;5075129;28;20111;-77
2023/08/05 09:09:01;;;;;;;5.78;2.30;;;;;;;;;;5075295;28;20052;-77
2023/08/05 09:11:27;;;;;;;5.38;2.30;;;;;;;;;;5074918;28;20067;-79
2023/08/05 09:13:53;;;;;;;4.35;2.20;;;;;;;;;;5074704;28;20119;-77
2023/08/05 09:16:19;;;;;;;5.43;2.30;;;;;;;;;;5056232;28;20048;-78
2023/08/05 09:18:53;;;;;;;4.20;2.35;;;;;;;;;;5075172;28;20059;-78
2023/08/05 09:21:26;;;;;;;4.53;2.35;;;;;;;;;;5073082;28;20101;-78
2023/08/05 09:23:58;;;;;;;3.35;2.10;;;;;;;;;;5054898;28;20117;-78
2023/08/05 09:26:28;;;;;;;5.53;2.30;;;;;;;;;;5075154;28;20105;-74
2023/08/05 09:28:57;;;;;;;3.63;2.10;;;;;;;;;;5078844;28;20048;-74
2023/08/05 09:31:23;;;;;;;5.43;2.05;;;;;;;;;;5082818;28;20048;-74
2023/08/05 09:33:50;;;;;;;3.63;2.00;;;;;;;;;;5074997;28;20123;-74
2023/08/05 09:36:17;;;;;;;3.20;1.95;;;;;;;;;;5076907;28;20044;-75
2023/08/05 09:38:46;;;;;;;4.13;2.13;;;;;;;;;;5094346;28;20056;-75
2023/08/05 09:41:12;;;;;;;3.17;1.80;;;;;;;;;;5093087;28;20441;-74
2023/08/05 09:43:43;;;;;;;4.80;1.95;;;;;;;;;;5093813;28;20040;-74
2023/08/05 09:46:12;;;;;;;6.05;2.15;;;;;;;;;;5071443;28;20044;-75
2023/08/05 09:48:42;;;;;;;4.15;1.88;;;;;;;;;;5076136;28;20441;-75
2023/08/05 09:51:09;;;;;;;3.58;1.60;;;;;;;;;;5076222;28;20071;-76
2023/08/05 09:53:39;;;;;;;5.93;1.80;;;;;;;;;;5092685;28;20040;-75
2023/08/05 09:56:06;;;;;;;3.28;1.80;;;;;;;;;;5093722;28;20072;-75
2023/08/05 09:58:35;;;;;;;3.50;1.95;;;;;;;;;;5094317;28;20443;-75
2023/08/05 10:01:02;;;;;;;4.57;1.80;;;;;;;;;;5093670;28;20232;-75
2023/08/05 10:03:28;;;;;;;2.97;1.65;;;;;;;;;;5076170;28;20082;-75
2023/08/05 10:05:56;;;;;;;3.15;1.60;;;;;;;;;;5073808;28;20451;-75
2023/08/05 10:08:24;;;;;;;4.32;1.65;;;;;;;;;;5039458;28;20040;-75
2023/08/05 10:10:50;;;;;;;3.53;1.67;;;;;;;;;;5071852;28;20119;-75
2023/08/05 10:13:20;;;;;;;3.17;1.67;;;;;;;;;;5073535;28;20044;-75
2023/08/05 10:15:51;;;;;;;3.90;1.80;;;;;;;;;;5055375;28;20047;-74
2023/08/05 10:18:17;;;;;;;3.75;1.83;;;;;;;;;;5074066;28;20052;-74
2023/08/05 10:20:49;;;;;;;3.75;1.80;;;;;;;;;;5055420;28;20498;-75
2023/08/05 10:23:15;;;;;;;4.13;2.03;;;;;;;;;;5073221;28;20049;-75
2023/08/05 10:25:52;;;;;;;4.18;1.70;;;;;;;;;;5073069;28;20067;-75
2023/08/05 10:28:24;;;;;;;3.17;1.90;;;;;;;;;;5073365;28;20048;-75
2023/08/05 10:30:52;;;;;;;5.32;1.70;;;;;;;;;;5055111;28;20057;-75
2023/08/05 10:33:18;;;;;;;2.25;1.60;;;;;;;;;;5073295;28;20153;-75
2023/08/05 10:35:44;;;;;;;3.00;1.60;;;;;;;;;;5071622;28;20044;-75
2023/08/05 10:38:11;;;;;;;3.50;1.70;;;;;;;;;;5073488;28;20076;-76
2023/08/05 10:40:41;;;;;;;3.88;1.80;;;;;;;;;;5054990;28;20047;-76
2023/08/05 10:43:09;;;;;;;3.40;1.67;;;;;;;;;;5071187;28;20075;-80
2023/08/05 10:45:36;;;;;;;3.42;1.60;;;;;;;;;;5071369;28;20063;-83
2023/08/05 10:48:13;;;;;;;3.63;1.83;;;;;;;;;;5071464;28;20059;-84
2023/08/05 10:50:42;;;;;;;5.90;2.00;;;;;;;;;;5052620;28;20137;-82
2023/08/05 10:53:09;;;;;;;5.00;2.00;;;;;;;;;;5047378;28;20047;-82
2023/08/05 10:55:48;;;;;;;4.80;1.88;;;;;;;;;;5068451;28;20048;-81
2023/08/05 10:58:15;;;;;;;4.30;1.90;;;;;;;;;;5070912;28;20044;-82
2023/08/05 11:00:48;;;;;;;4.05;1.95;;;;;;;;;;5090310;28;20040;-81
2023/08/05 11:03:23;;;;;;;3.53;1.70;;;;;;;;;;5090004;28;20193;-82
2023/08/05 11:05:50;;;;;;;5.60;1.77;;;;;;;;;;5055958;28;20044;-82
2023/08/05 11:08:21;;;;;;;3.45;1.90;;;;;;;;;;5073444;28;20043;-80
2023/08/05 11:10:48;;;;;;;4.10;2.00;;;;;;;;;;5089804;28;20051;-79
2023/08/05 11:13:16;;;;;;;4.68;1.80;;;;;;;;;;5089788;28;20101;-79
2023/08/05 11:15:42;;;;;;;5.97;2.22;;;;;;;;;;5071365;28;20103;-78
2023/08/05 11:18:09;;;;;;;5.40;2.10;;;;;;;;;;5090571;28;20451;-80
2023/08/05 11:20:35;;;;;;;5.35;2.00;;;;;;;;;;5072767;28;20128;-82
2023/08/05 11:23:01;;;;;;;4.22;1.80;;;;;;;;;;5077913;28;20143;-79
2023/08/05 11:25:29;;;;;;;4.10;2.00;;;;;;;;;;5103355;28;20043;-79
2023/08/05 11:27:55;;;;;;;4.07;2.05;;;;;;;;;;5071562;28;20662;-80
2023/08/05 11:30:22;;;;;;;4.85;2.10;;;;;;;;;;5054501;28;20123;-79
2023/08/05 11:32:55;;;;;;;3.50;2.20;;;;;;;;;;5068861;28;20051;-80
2023/08/05 11:35:22;;;;;;;4.13;2.08;;;;;;;;;;5080576;28;20060;-80
2023/08/05 11:37:48;;;;;;;5.00;2.10;;;;;;;;;;5090018;28;20176;-75
2023/08/05 11:40:14;;;;;;;5.22;2.45;;;;;;;;;;5092288;28;20185;-74
2023/08/05 11:42:41;;;;;;;5.07;2.20;;;;;;;;;;5074261;28;20040;-74
2023/08/05 11:45:14;;;;;;;4.28;2.10;;;;;;;;;;5085323;28;20081;-79
2023/08/05 11:47:40;;;;;;;4.28;2.22;;;;;;;;;;5092759;28;20043;-79
2023/08/05 11:50:07;;;;;;;4.97;2.20;;;;;;;;;;5092406;28;20040;-78
2023/08/05 11:52:33;;;;;;;4.45;2.20;;;;;;;;;;5092817;28;20051;-79
2023/08/05 11:55:00;;;;;;;4.95;2.33;;;;;;;;;;5071808;28;20222;-79
2023/08/05 11:57:27;;;;;;;3.58;2.03;;;;;;;;;;5091047;28;20054;-79
2023/08/05 11:59:55;;;;;;;5.50;2.10;;;;;;;;;;5092687;28;20070;-80
2023/08/05 12:02:21;;;;;;;4.53;2.20;;;;;;;;;;5092461;28;20052;-79
2023/08/05 12:04:51;;;;;;;5.43;2.10;;;;;;;;;;5083249;28;20228;-79
2023/08/05 12:07:19;;;;;;;4.07;2.20;;;;;;;;;;5076097;28;20102;-79
2023/08/05 12:09:45;;;;;;;4.85;2.10;;;;;;;;;;5058550;28;20065;-79
2023/08/05 12:12:18;;;;;;;4.65;2.20;;;;;;;;;;5076231;28;20409;-78
2023/08/05 12:14:44;;;;;;;4.65;2.30;;;;;;;;;;5076087;28;20045;-78
2023/08/05 12:17:11;;;;;;;4.45;2.40;;;;;;;;;;5076371;28;20128;-79
2023/08/05 12:19:40;;;;;;;4.05;2.45;;;;;;;;;;5058106;28;20036;-79
2023/08/05 12:22:06;;;;;;;4.57;2.70;;;;;;;;;;5076034;28;20056;-78
2023/08/05 12:24:32;;;;;;;4.72;2.53;;;;;;;;;;5076047;28;20090;-79
2023/08/05 12:26:59;;;;;;;5.82;2.47;;;;;;;;;;5075748;28;20041;-79
2023/08/05 12:29:25;;;;;;;5.03;2.45;;;;;;;;;;5075503;28;20131;-78
2023/08/05 12:31:51;;;;;;;6.65;2.53;;;;;;;;;;5074938;28;20044;-79
2023/08/05 12:34:18;;;;;;;4.90;2.50;;;;;;;;;;5076320;28;20056;-75
2023/08/05 12:36:45;;;;;;;4.65;2.40;;;;;;;;;;5082124;28;20048;-74
2023/08/05 12:39:11;;;;;;;4.57;2.53;;;;;;;;;;5087054;28;20036;-75
2023/08/05 12:41:37;;;;;;;4.32;2.50;;;;;;;;;;5081701;28;20503;-75
2023/08/05 12:44:03;;;;;;;4.70;2.60;;;;;;;;;;5094702;28;20078;-74
2023/08/05 12:46:30;;;;;;;4.93;2.83;;;;;;;;;;5085360;28;20445;-74
2023/08/05 12:48:59;;;;;;;7.60;3.20;;;;;;;;;;5057418;28;20060;-74
2023/08/05 12:51:28;;;;;;;5.22;3.20;;;;;;;;;;5055179;28;20040;-75
2023/08/05 12:53:54;;;;;;;7.82;3.25;;;;;;;;;;5056281;28;20044;-75
2023/08/05 12:56:20;;;;;;;5.07;3.20;;;;;;;;;;5077673;28;20173;-75
2023/08/05 12:58:46;;;;;;;6.13;3.58;;;;;;;;;;5077291;28;20069;-75
2023/08/05 13:01:13;;;;;;;5.05;3.55;;;;;;;;;;5094805;28;20043;-75
2023/08/05 13:03:39;;;;;;;5.68;3.70;;;;;;;;;;5088446;28;20037;-74
2023/08/05 13:06:05;;;;;;;5.68;3.90;;;;;;;;;;5048284;28;20060;-75
2023/08/05 13:08:31;;;;;;;5.68;3.70;;;;;;;;;;5083902;28;20503;-78
2023/08/05 13:10:57;;;;;;;7.25;3.70;;;;;;;;;;5064221;28;20044;-78
2023/08/05 13:13:24;;;;;;;6.15;4.28;;;;;;;;;;5067009;28;20082;-78
2023/08/05 13:15:50;;;;;;;6.72;4.40;;;;;;;;;;5073502;28;20048;-78
2023/08/05 13:18:16;;;;;;;6.82;4.80;;;;;;;;;;5074888;28;20071;-78
2023/08/05 13:20:42;;;;;;;9.40;5.10;;;;;;;;;;5077679;28;20048;-86
2023/08/05 13:23:09;;;;;;;8.50;5.88;;;;;;;;;;5055667;28;20043;-88
2023/08/05 13:25:35;;;;;;;8.00;5.43;;;;;;;;;;5056321;28;20044;-89
2023/08/05 13:28:01;;;;;;;8.68;5.20;;;;;;;;;;5040083;28;20049;-89
2023/08/05 13:30:27;;;;;;;9.38;6.75;;;;;;;;;;5039433;28;20052;-87
2023/08/05 13:32:53;;;;;;;9.82;7.50;;;;;;;;;;5038782;28;20037;-87
2023/08/05 13:35:19;;;;;;;10.88;8.15;;;;;;;;;;5045571;28;20108;-88
2023/08/05 13:37:45;;;;;;;8.98;7.45;;;;;;;;;;5073271;28;20106;-85
2023/08/05 13:40:11;;;;;;;9.57;8.25;;;;;;;;;;5055079;28;20060;-86
2023/08/05 13:42:38;;;;;;;10.13;8.68;;;;;;;;;;5055492;28;20518;-87
2023/08/05 13:45:04;;;;;;;10.70;8.35;;;;;;;;;;5054928;28;20041;-81
2023/08/05 13:47:30;;;;;;;9.95;8.32;;;;;;;;;;5085127;28;20044;-76
2023/08/05 13:49:56;;;;;;;11.18;8.63;;;;;;;;;;5073828;28;20052;-76
2023/08/05 13:52:22;;;;;;;12.48;8.77;;;;;;;;;;5054732;28;20131;-78
2023/08/05 13:54:48;;;;;;;12.35;9.23;;;;;;;;;;5070848;28;20396;-77
2023/08/05 13:57:15;;;;;;;10.45;8.40;;;;;;;;;;5060790;28;20443;-78
2023/08/05 13:59:41;;;;;;;12.27;8.95;;;;;;;;;;5093516;28;20496;-77
2023/08/05 14:02:07;;;;;;;10.88;9.00;;;;;;;;;;5055279;28;20051;-77
2023/08/05 14:04:33;;;;;;;12.50;9.43;;;;;;;;;;5055409;28;20131;-77
2023/08/05 14:06:59;;;;;;;10.00;8.38;;;;;;;;;;5055388;28;20439;-77
2023/08/05 14:09:26;;;;;;;12.82;8.20;;;;;;;;;;5055570;28;20109;-77
2023/08/05 14:11:52;;;;;;;9.95;7.72;;;;;;;;;;5073057;28;20500;-77
2023/08/05 14:14:18;;;;;;;11.38;8.50;;;;;;;;;;5073541;28;20048;-77
2023/08/05 14:16:44;;;;;;;12.00;8.00;;;;;;;;;;5073212;28;20066;-77
2023/08/05 14:19:10;;;;;;;8.80;7.38;;;;;;;;;;5073285;28;20040;-78
2023/08/05 14:21:36;;;;;;;11.55;7.82;;;;;;;;;;5070950;28;20437;-77
2023/08/05 14:24:03;;;;;;;10.45;7.68;;;;;;;;;;5072955;28;20067;-77
2023/08/05 14:26:29;;;;;;;8.02;7.18;;;;;;;;;;5054431;28;20053;-77
2023/08/05 14:28:55;;;;;;;9.70;6.88;;;;;;;;;;5073043;28;20036;-77
2023/08/05 14:31:21;;;;;;;7.82;6.03;;;;;;;;;;5055016;28;20064;-76
2023/08/05 14:33:48;;;;;;;7.72;6.43;;;;;;;;;;5073220;28;20036;-77
2023/08/05 14:36:14;;;;;;;10.20;6.57;;;;;;;;;;5038014;28;20044;-76
2023/08/05 14:38:40;;;;;;;9.00;6.70;;;;;;;;;;5073347;28;20437;-76